createdAt,value
2018-08-23T00:01:24.041Z,1.90
2018-08-23T00:04:22.655Z,1.53
2018-08-23T00:07:20.354Z,2.00
2018-08-23T00:10:19.337Z,1.60
2018-08-23T00:13:16.810Z,2.00
2018-08-23T00:20:14.622Z,1.97
2018-08-23T00:23:11.902Z,1.67
2018-08-23T00:26:09.560Z,2.20
2018-08-23T00:29:07.320Z,2.97
2018-08-23T00:32:11.176Z,2.20
2018-08-23T00:35:08.995Z,1.70
2018-08-23T00:38:06.817Z,2.20
2018-08-23T00:41:04.690Z,1.93
2018-08-23T00:44:02.476Z,2.23
2018-08-23T00:47:02.288Z,1.80
2018-08-23T00:50:00.144Z,1.57
2018-08-23T00:53:01.946Z,1.80
2018-08-23T00:55:59.651Z,2.07
2018-08-23T00:59:04.174Z,1.87
2018-08-23T01:02:06.945Z,2.00
2018-08-23T01:05:06.495Z,1.40
2018-08-23T01:08:04.051Z,1.70
2018-08-23T01:11:02.115Z,1.37
2018-08-23T01:13:59.755Z,1.80
2018-08-23T01:17:03.743Z,1.80
2018-08-23T01:20:07.375Z,1.40
2018-08-23T01:23:14.210Z,2.10
2018-08-23T01:26:12.136Z,1.80
2018-08-23T01:29:10.028Z,1.70
2018-08-23T01:32:07.797Z,1.60
2018-08-23T01:35:05.658Z,1.93
2018-08-23T01:38:04.326Z,1.40
2018-08-23T01:41:07.228Z,2.27
2018-08-23T01:44:05.192Z,1.63
2018-08-23T01:47:03.102Z,1.90
2018-08-23T01:50:01.007Z,1.63
2018-08-23T01:53:01.703Z,1.80
2018-08-23T01:55:59.480Z,1.60
2018-08-23T01:58:57.132Z,1.87
2018-08-23T02:01:55.863Z,2.10
2018-08-23T02:04:54.730Z,2.27
2018-08-23T02:07:52.560Z,1.80
2018-08-23T02:10:50.209Z,1.77
2018-08-23T02:13:47.974Z,1.83
2018-08-23T02:16:52.766Z,1.80
2018-08-23T02:19:56.618Z,1.70
2018-08-23T02:22:54.641Z,1.60
2018-08-23T02:25:52.265Z,2.00
2018-08-23T02:28:49.954Z,1.77
2018-08-23T02:31:47.785Z,1.60
2018-08-23T02:34:46.607Z,1.77
2018-08-23T02:37:44.191Z,1.87
2018-08-23T02:40:42.036Z,1.80
2018-08-23T02:43:39.872Z,1.97
2018-08-23T02:46:37.707Z,2.13
2018-08-23T02:49:35.456Z,1.73
2018-08-23T02:52:38.335Z,2.07
2018-08-23T02:55:36.158Z,1.70
2018-08-23T02:58:33.783Z,1.83
2018-08-23T03:01:31.511Z,2.10
2018-08-23T03:04:34.169Z,1.67
2018-08-23T03:07:35.750Z,1.77
2018-08-23T03:10:33.788Z,1.90
2018-08-23T03:13:31.447Z,2.20
2018-08-23T03:16:29.226Z,2.03
2018-08-23T03:19:26.911Z,1.60
2018-08-23T03:22:24.842Z,1.83
2018-08-23T03:25:26.744Z,1.90
2018-08-23T03:28:24.590Z,1.90
2018-08-23T03:31:23.468Z,2.53
2018-08-23T03:34:21.264Z,1.87
2018-08-23T03:37:19.176Z,2.20
2018-08-23T03:40:17.964Z,2.13
2018-08-23T03:43:15.915Z,1.73
2018-08-23T03:46:13.555Z,1.63
2018-08-23T03:49:13.335Z,2.03
2018-08-23T03:52:11.036Z,2.33
2018-08-23T03:55:12.898Z,2.00
2018-08-23T03:58:10.624Z,1.97
2018-08-23T04:01:18.455Z,2.20
2018-08-23T04:04:16.188Z,1.87
2018-08-23T04:07:13.809Z,1.70
2018-08-23T04:10:11.499Z,2.10
2018-08-23T04:13:09.204Z,2.10
2018-08-23T04:16:06.871Z,2.00
2018-08-23T04:19:05.581Z,1.90
2018-08-23T04:22:03.464Z,2.10
2018-08-23T04:25:04.206Z,2.37
2018-08-23T04:28:01.993Z,2.17
2018-08-23T04:30:59.725Z,2.73
2018-08-23T04:33:57.534Z,2.53
2018-08-23T04:36:55.264Z,2.50
2018-08-23T04:39:59.212Z,2.20
2018-08-23T04:42:57.014Z,2.50
2018-08-23T04:45:55.731Z,2.47
2018-08-23T04:48:53.705Z,2.10
2018-08-23T04:51:51.668Z,2.20
2018-08-23T04:54:49.332Z,2.33
2018-08-23T04:57:47.277Z,2.13
2018-08-23T05:00:44.865Z,2.13
2018-08-23T05:03:42.721Z,2.40
2018-08-23T05:06:40.870Z,2.50
2018-08-23T05:09:39.666Z,2.47
2018-08-23T05:12:37.280Z,2.00
2018-08-23T05:15:35.085Z,2.27
2018-08-23T05:18:32.711Z,2.37
2018-08-23T05:21:30.304Z,2.60
2018-08-23T05:24:28.084Z,2.33
2018-08-23T05:27:26.823Z,3.07
2018-08-23T05:30:25.090Z,2.70
2018-08-23T05:33:24.494Z,2.63
2018-08-23T05:36:23.645Z,2.70
2018-08-23T05:39:22.288Z,2.87
2018-08-23T05:42:20.135Z,3.00
2018-08-23T05:45:17.934Z,3.67
2018-08-23T05:48:27.400Z,2.53
2018-08-23T05:51:26.538Z,2.87
2018-08-23T05:54:24.346Z,2.93
2018-08-23T05:57:22.788Z,2.90
2018-08-23T06:00:20.156Z,3.13
2018-08-23T06:03:17.773Z,2.57
2018-08-23T06:06:15.593Z,2.47
2018-08-23T06:09:13.270Z,3.00
2018-08-23T06:12:26.158Z,2.73
2018-08-23T06:15:23.841Z,3.03
2018-08-23T06:18:22.568Z,3.00
2018-08-23T06:21:20.305Z,2.47
2018-08-23T06:24:17.971Z,2.83
2018-08-23T06:27:15.936Z,3.33
2018-08-23T06:30:13.388Z,3.50
2018-08-23T06:33:11.277Z,3.20
2018-08-23T06:36:08.845Z,3.00
2018-08-23T06:39:08.630Z,3.20
2018-08-23T06:42:10.014Z,2.67
2018-08-23T06:45:07.931Z,2.63
2018-08-23T06:48:07.696Z,2.90
2018-08-23T06:51:06.512Z,3.07
2018-08-23T06:54:08.157Z,2.50
2018-08-23T06:57:07.003Z,2.47
2018-08-23T07:00:05.308Z,2.77
2018-08-23T07:03:04.456Z,2.80
2018-08-23T07:06:03.191Z,2.67
2018-08-23T07:09:00.944Z,3.00
2018-08-23T07:11:59.548Z,2.70
2018-08-23T07:14:58.741Z,2.63
2018-08-23T07:17:57.275Z,2.57
2018-08-23T07:20:54.995Z,2.70
2018-08-23T07:23:53.718Z,2.70
2018-08-23T07:26:51.639Z,2.60
2018-08-23T07:29:49.938Z,2.63
2018-08-23T07:32:48.982Z,2.80
2018-08-23T07:35:46.789Z,2.40
2018-08-23T07:38:45.443Z,2.37
2018-08-23T07:41:42.983Z,2.40
2018-08-23T07:44:42.865Z,2.10
2018-08-23T07:47:43.531Z,3.13
2018-08-23T07:50:41.343Z,2.53
2018-08-23T07:53:39.881Z,2.87
2018-08-23T07:56:42.476Z,2.43
2018-08-23T07:59:40.339Z,2.67
2018-08-23T08:02:38.116Z,2.50
2018-08-23T08:05:42.100Z,2.83
2018-08-23T08:08:39.639Z,2.20
2018-08-23T08:11:37.260Z,2.70
2018-08-23T08:14:40.035Z,2.65
2018-08-23T08:17:40.655Z,2.50
2018-08-23T08:20:38.458Z,2.67
2018-08-23T08:23:36.299Z,1.98
2018-08-23T08:26:34.207Z,2.42
2018-08-23T08:29:37.835Z,2.27
2018-08-23T08:32:36.551Z,2.83
2018-08-23T08:35:34.235Z,1.80
2018-08-23T08:38:32.236Z,2.27
2018-08-23T08:41:29.513Z,3.17
2018-08-23T08:44:27.245Z,2.45
2018-08-23T08:47:25.064Z,2.60
2018-08-23T08:50:23.991Z,2.77
2018-08-23T08:53:21.851Z,2.37
2018-08-23T08:56:19.601Z,2.42
2018-08-23T08:59:17.481Z,2.52
2018-08-23T09:02:15.905Z,2.52
2018-08-23T09:05:13.307Z,2.10
2018-08-23T09:08:10.948Z,2.22
2018-08-23T09:11:08.686Z,2.27
2018-08-23T09:14:06.259Z,2.45
2018-08-23T09:17:04.119Z,2.27
2018-08-23T09:20:12.891Z,2.10
2018-08-23T09:23:10.588Z,2.30
2018-08-23T09:26:10.501Z,2.40
2018-08-23T09:29:08.253Z,2.87
2018-08-23T09:32:06.151Z,2.73
2018-08-23T09:35:09.769Z,2.33
2018-08-23T09:38:09.566Z,2.00
2018-08-23T09:41:07.198Z,2.33
2018-08-23T09:44:05.081Z,2.40
2018-08-23T09:47:11.783Z,2.37
2018-08-23T09:50:12.755Z,2.43
2018-08-23T09:53:10.616Z,2.00
2018-08-23T09:56:08.909Z,2.10
2018-08-23T09:59:06.298Z,2.77
2018-08-23T10:02:10.895Z,3.20
2018-08-23T10:05:12.977Z,2.50
2018-08-23T10:08:16.603Z,2.70
2018-08-23T10:11:21.263Z,2.30
2018-08-23T10:14:24.080Z,2.10
2018-08-23T10:17:27.796Z,2.60
2018-08-23T10:20:31.688Z,1.83
2018-08-23T10:23:31.346Z,2.63
2018-08-23T10:26:41.991Z,2.53
2018-08-23T10:29:39.794Z,2.23
2018-08-23T10:32:37.376Z,2.23
2018-08-23T10:35:34.950Z,2.20
2018-08-23T10:38:34.568Z,3.07
2018-08-23T10:41:32.236Z,1.83
2018-08-23T10:44:29.821Z,1.80
2018-08-23T10:47:33.421Z,1.97
2018-08-23T10:50:31.218Z,1.90
2018-08-23T10:53:28.911Z,2.70
2018-08-23T10:56:26.698Z,1.73
2018-08-23T10:59:24.432Z,1.97
2018-08-23T11:02:22.011Z,1.93
2018-08-23T11:05:19.820Z,2.03
2018-08-23T11:08:23.611Z,2.40
2018-08-23T11:11:27.287Z,2.07
2018-08-23T11:14:32.041Z,2.30
2018-08-23T11:17:35.709Z,1.57
2018-08-23T11:20:41.583Z,1.77
2018-08-23T11:23:39.473Z,2.10
2018-08-23T11:26:37.180Z,2.10
2018-08-23T11:29:34.764Z,2.70
2018-08-23T11:32:33.476Z,1.73
2018-08-23T11:35:31.254Z,1.77
2018-08-23T11:38:29.034Z,1.60
2018-08-23T11:41:26.671Z,2.13
2018-08-23T11:44:24.288Z,2.47
2018-08-23T11:47:22.040Z,2.30
2018-08-23T11:50:20.722Z,2.00
2018-08-23T11:53:23.252Z,2.60
2018-08-23T11:56:30.100Z,2.17
2018-08-23T11:59:29.926Z,2.30
2018-08-23T12:02:28.677Z,2.80
2018-08-23T12:05:26.549Z,2.07
2018-08-23T12:08:24.290Z,2.60
2018-08-23T12:11:22.116Z,2.40
2018-08-23T12:14:19.486Z,2.33
2018-08-23T12:17:19.196Z,3.00
2018-08-23T12:20:17.623Z,2.53
2018-08-23T12:23:15.443Z,2.60
2018-08-23T12:26:13.197Z,2.83
2018-08-23T12:29:16.983Z,2.57
2018-08-23T12:32:18.774Z,2.30
2018-08-23T12:35:16.783Z,2.90
2018-08-23T12:38:29.492Z,2.30
2018-08-23T12:41:34.117Z,3.40
2018-08-23T12:44:31.665Z,2.70
2018-08-23T12:47:29.478Z,3.27
2018-08-23T12:50:28.021Z,2.77
2018-08-23T12:53:25.704Z,3.03
2018-08-23T12:56:23.381Z,3.70
2018-08-23T12:59:24.164Z,3.40
2018-08-23T13:02:22.111Z,4.10
2018-08-23T13:05:20.068Z,3.77
2018-08-23T13:08:18.625Z,3.50
2018-08-23T13:11:17.445Z,3.37
2018-08-23T13:14:14.993Z,3.63
2018-08-23T13:17:12.917Z,3.37
2018-08-23T13:20:10.642Z,4.17
2018-08-23T13:23:08.277Z,4.47
2018-08-23T13:26:06.012Z,4.70
2018-08-23T13:29:03.551Z,4.20
2018-08-23T13:32:01.508Z,3.77
2018-08-23T13:35:00.123Z,3.87
2018-08-23T13:37:57.581Z,5.37
2018-08-23T13:40:55.282Z,3.90
2018-08-23T13:43:53.105Z,4.33
2018-08-23T13:46:50.742Z,4.70
2018-08-23T13:49:48.191Z,4.97
2018-08-23T13:52:45.868Z,5.20
2018-08-23T13:55:43.487Z,5.27
2018-08-23T13:58:41.136Z,4.70
2018-08-23T14:01:38.737Z,8.83
2018-08-23T14:04:36.434Z,4.87
2018-08-23T14:07:34.247Z,6.30
2018-08-23T14:10:32.177Z,5.67
2018-08-23T14:13:32.097Z,5.97
2018-08-23T14:16:29.728Z,5.20
2018-08-23T14:19:27.527Z,5.60
2018-08-23T14:22:25.388Z,5.73
2018-08-23T14:25:23.123Z,5.53
2018-08-23T14:28:23.880Z,4.70
2018-08-23T14:31:21.533Z,4.90
2018-08-23T14:34:20.224Z,4.43
2018-08-23T14:37:18.772Z,4.73
2018-08-23T14:40:16.616Z,3.53
2018-08-23T14:43:16.134Z,4.40
2018-08-23T14:46:20.540Z,4.23
2018-08-23T14:49:24.483Z,3.93
2018-08-23T14:52:22.411Z,3.43
2018-08-23T14:55:25.141Z,3.10
2018-08-23T14:58:23.690Z,2.53
2018-08-23T15:01:22.444Z,2.70
2018-08-23T15:04:21.113Z,2.70
2018-08-23T15:07:18.964Z,2.50
2018-08-23T15:10:19.580Z,2.60
2018-08-23T15:13:17.143Z,2.67
2018-08-23T15:16:15.010Z,2.30
2018-08-23T15:19:13.809Z,2.20
2018-08-23T15:22:11.550Z,2.17
2018-08-23T15:25:09.480Z,2.50
2018-08-23T15:28:07.311Z,2.40
2018-08-23T15:31:13.483Z,2.33
2018-08-23T15:34:11.176Z,2.30
2018-08-23T15:37:08.868Z,2.40
2018-08-23T15:40:21.552Z,2.10
2018-08-23T15:43:19.172Z,2.37
2018-08-23T15:46:19.131Z,3.87
2018-08-23T15:49:16.696Z,2.70
2018-08-23T15:52:14.367Z,2.10
2018-08-23T15:55:12.115Z,2.67
2018-08-23T15:58:09.506Z,2.40
2018-08-23T16:01:07.318Z,2.53
2018-08-23T16:04:04.937Z,2.27
2018-08-23T16:07:02.902Z,2.43
2018-08-23T16:10:00.651Z,2.30
2018-08-23T16:12:58.268Z,2.57
2018-08-23T16:16:02.062Z,2.10
2018-08-23T16:19:05.516Z,2.43
2018-08-23T16:22:04.186Z,2.10
2018-08-23T16:25:02.153Z,2.30
2018-08-23T16:27:59.909Z,2.17
2018-08-23T16:30:57.648Z,2.33
2018-08-23T16:33:55.353Z,2.00
2018-08-23T16:36:53.077Z,2.10
2018-08-23T16:39:50.913Z,2.97
2018-08-23T16:42:49.522Z,2.73
2018-08-23T16:45:47.288Z,2.30
2018-08-23T16:48:44.903Z,3.13
2018-08-23T16:51:42.687Z,2.57
2018-08-23T16:54:40.392Z,2.40
2018-08-23T16:57:38.126Z,1.90
2018-08-23T17:00:35.683Z,2.53
2018-08-23T17:03:33.510Z,2.23
2018-08-23T17:06:33.203Z,2.17
2018-08-23T17:09:31.100Z,2.20
2018-08-23T17:12:28.849Z,2.17
2018-08-23T17:15:26.709Z,4.47
2018-08-23T17:18:24.358Z,2.20
2018-08-23T17:21:22.188Z,2.63
2018-08-23T17:24:19.979Z,2.00
2018-08-23T17:27:17.614Z,2.10
2018-08-23T17:30:16.505Z,2.23
2018-08-23T17:33:14.001Z,2.17
2018-08-23T17:36:11.695Z,2.40
2018-08-23T17:39:10.356Z,1.97
2018-08-23T17:42:08.130Z,2.23
2018-08-23T17:45:05.689Z,2.47
2018-08-23T17:48:03.612Z,2.90
2018-08-23T17:51:03.175Z,2.07
2018-08-23T17:54:01.105Z,2.10
2018-08-23T17:57:00.978Z,2.20
2018-08-23T17:59:59.048Z,3.57
2018-08-23T18:02:56.924Z,3.37
2018-08-23T18:05:54.898Z,2.40
2018-08-23T18:08:52.449Z,2.23
2018-08-23T18:11:50.273Z,2.60
2018-08-23T18:14:49.160Z,2.77
2018-08-23T18:17:48.989Z,2.70
2018-08-23T18:20:46.543Z,3.00
2018-08-23T18:23:44.619Z,3.87
2018-08-23T18:26:42.284Z,3.00
2018-08-23T18:29:40.086Z,2.77
2018-08-23T18:32:37.807Z,3.47
2018-08-23T18:35:36.485Z,3.17
2018-08-23T18:38:34.195Z,3.20
2018-08-23T18:41:33.021Z,2.80
2018-08-23T18:44:30.950Z,3.10
2018-08-23T18:47:28.534Z,3.17
2018-08-23T18:50:26.231Z,2.70
2018-08-23T18:53:23.899Z,3.10
2018-08-23T18:56:21.638Z,3.13
2018-08-23T18:59:19.524Z,3.13
2018-08-23T19:02:17.197Z,2.97
2018-08-23T19:05:14.930Z,3.10
2018-08-23T19:08:13.520Z,3.07
2018-08-23T19:11:11.304Z,3.00
2018-08-23T19:14:08.982Z,3.10
2018-08-23T19:17:13.652Z,3.33
2018-08-23T19:20:11.581Z,2.87
2018-08-23T19:23:09.208Z,3.57
2018-08-23T19:26:06.928Z,4.00
2018-08-23T19:29:05.023Z,3.27
2018-08-23T19:32:02.694Z,3.83
2018-08-23T19:35:00.270Z,2.60
2018-08-23T19:37:58.159Z,3.20
2018-08-23T19:40:55.983Z,3.40
2018-08-23T19:43:53.622Z,3.83
2018-08-23T19:46:57.074Z,2.83
2018-08-23T19:50:02.859Z,3.40
2018-08-23T19:53:00.218Z,3.13
2018-08-23T19:55:58.031Z,3.20
2018-08-23T19:58:55.717Z,3.47
2018-08-23T20:01:53.275Z,3.40
2018-08-23T20:04:50.992Z,3.10
2018-08-23T20:07:48.625Z,3.37
2018-08-23T20:10:46.183Z,4.17
2018-08-23T20:13:43.902Z,3.87
2018-08-23T20:16:41.598Z,3.77
2018-08-23T20:19:40.149Z,3.67
2018-08-23T20:22:38.215Z,3.27
2018-08-23T20:25:35.869Z,3.60
2018-08-23T20:28:33.561Z,3.27
2018-08-23T20:31:31.583Z,3.47
2018-08-23T20:34:29.074Z,3.60
2018-08-23T20:37:26.839Z,4.73
2018-08-23T20:40:24.432Z,4.00
2018-08-23T20:43:21.983Z,3.67
2018-08-23T20:46:19.827Z,4.33
2018-08-23T20:49:18.326Z,3.70
2018-08-23T20:52:16.050Z,3.97
2018-08-23T20:55:13.767Z,3.70
2018-08-23T20:58:11.736Z,4.33
2018-08-23T21:01:09.385Z,3.70
2018-08-23T21:04:07.248Z,4.07
2018-08-23T21:07:06.065Z,4.40
2018-08-23T21:10:03.999Z,4.50
2018-08-23T21:13:01.495Z,4.67
2018-08-23T21:15:59.080Z,4.90
2018-08-23T21:18:56.785Z,4.40
2018-08-23T21:21:54.299Z,4.23
2018-08-23T21:24:51.969Z,4.43
2018-08-23T21:27:49.815Z,4.80
2018-08-23T21:30:47.681Z,4.87
2018-08-23T21:33:45.472Z,4.60
2018-08-23T21:36:43.198Z,3.83
2018-08-23T21:39:40.858Z,4.00
2018-08-23T21:42:38.544Z,4.00
2018-08-23T21:45:36.200Z,4.03
2018-08-23T21:48:33.893Z,4.10
2018-08-23T21:51:31.597Z,4.27
2018-08-23T21:54:30.393Z,3.87
2018-08-23T21:57:28.060Z,4.27
2018-08-23T22:00:25.800Z,4.40
2018-08-23T22:03:23.652Z,4.00
2018-08-23T22:06:21.254Z,4.80
2018-08-23T22:09:21.101Z,4.33
2018-08-23T22:12:18.689Z,4.00
2018-08-23T22:15:16.456Z,4.33
2018-08-23T22:18:14.152Z,3.53
2018-08-23T22:21:11.952Z,4.70
2018-08-23T22:24:09.396Z,4.30
2018-08-23T22:27:07.192Z,3.70
2018-08-23T22:30:05.059Z,4.23
2018-08-23T22:33:03.046Z,4.10
2018-08-23T22:36:00.568Z,3.97
2018-08-23T22:38:58.169Z,3.90
2018-08-23T22:41:55.823Z,4.10
2018-08-23T22:44:53.556Z,3.77
2018-08-23T22:47:51.149Z,4.30
2018-08-23T22:50:48.972Z,4.10
2018-08-23T22:53:46.759Z,3.97
2018-08-23T22:56:44.545Z,4.10
2018-08-23T22:59:43.139Z,3.33
2018-08-23T23:02:44.855Z,4.57
2018-08-23T23:05:42.679Z,3.90
2018-08-23T23:08:40.591Z,4.47
2018-08-23T23:11:38.431Z,4.50
2018-08-23T23:14:36.250Z,4.50
2018-08-23T23:17:33.944Z,4.53
2018-08-23T23:20:32.311Z,4.77
2018-08-23T23:23:29.586Z,4.47
2018-08-23T23:26:27.403Z,4.40
2018-08-23T23:29:25.055Z,4.53
2018-08-23T23:32:22.604Z,4.07
2018-08-23T23:35:20.229Z,4.27
2018-08-23T23:38:17.871Z,4.57
2018-08-23T23:41:15.835Z,4.00
2018-08-23T23:44:13.627Z,4.30
2018-08-23T23:47:11.506Z,4.17
2018-08-23T23:50:09.263Z,4.17
2018-08-23T23:53:06.897Z,4.93
2018-08-23T23:56:04.540Z,4.23
2018-08-23T23:59:02.035Z,4.10
